createdAt,value
2022-12-13T00:02:52.105Z,100.00
2022-12-13T00:08:14.426Z,100.00
2022-12-13T00:13:36.723Z,100.00
2022-12-13T00:19:02.025Z,100.00
2022-12-13T00:24:24.832Z,100.00
2022-12-13T00:29:47.216Z,100.00
2022-12-13T00:35:09.565Z,100.00
2022-12-13T00:40:31.897Z,100.00
2022-12-13T00:45:54.455Z,100.00
2022-12-13T00:51:18.877Z,98.57
2022-12-13T00:56:44.177Z,96.65
2022-12-13T01:02:06.463Z,95.07
2022-12-13T01:07:28.779Z,93.60
2022-12-13T01:12:51.618Z,92.34
2022-12-13T01:18:13.878Z,91.54
2022-12-13T01:23:36.692Z,90.91
2022-12-13T01:28:59.507Z,90.13
2022-12-13T01:34:26.502Z,89.60
2022-12-13T01:39:48.227Z,89.38
2022-12-13T01:45:26.978Z,89.07
2022-12-13T01:50:54.105Z,88.82
2022-12-13T01:56:24.110Z,88.78
2022-12-13T02:01:47.356Z,88.75
2022-12-13T02:07:11.015Z,88.71
2022-12-13T02:12:36.353Z,88.50
2022-12-13T02:18:45.811Z,88.45
2022-12-13T02:24:28.037Z,88.24
2022-12-13T02:30:27.612Z,87.68
2022-12-13T02:36:02.269Z,87.03
2022-12-13T02:41:57.257Z,86.24
2022-12-13T02:47:29.296Z,85.47
2022-12-13T02:52:52.940Z,84.72
2022-12-13T02:58:18.093Z,84.19
2022-12-13T03:03:54.179Z,84.09
2022-12-13T03:10:07.884Z,84.31
2022-12-13T03:15:58.457Z,84.44
2022-12-13T03:21:25.988Z,84.45
2022-12-13T03:26:50.025Z,84.40
2022-12-13T03:32:13.743Z,84.53
2022-12-13T03:37:36.893Z,84.79
2022-12-13T03:43:00.932Z,85.17
2022-12-13T03:48:23.811Z,85.62
2022-12-13T03:53:47.333Z,86.05
2022-12-13T03:59:09.560Z,86.53
2022-12-13T04:04:32.943Z,87.17
2022-12-13T04:09:56.140Z,87.31
2022-12-13T04:15:20.049Z,87.58
2022-12-13T04:20:42.912Z,87.72
2022-12-13T04:26:06.594Z,87.73
2022-12-13T04:31:31.477Z,87.77
2022-12-13T04:36:55.169Z,87.97
2022-12-13T04:42:18.690Z,88.06
2022-12-13T04:47:42.085Z,88.26
2022-12-13T04:53:04.483Z,88.37
2022-12-13T04:58:28.344Z,88.29
2022-12-13T05:03:52.598Z,88.11
2022-12-13T05:09:16.627Z,88.06
2022-12-13T05:14:39.844Z,88.00
2022-12-13T05:20:02.113Z,87.80
2022-12-13T05:25:25.592Z,87.70
2022-12-13T05:30:49.999Z,87.54
2022-12-13T05:36:12.490Z,87.49
2022-12-13T05:41:39.411Z,87.57
2022-12-13T05:47:01.936Z,87.56
2022-12-13T05:52:30.747Z,87.43
2022-12-13T05:57:53.217Z,87.26
2022-12-13T06:03:18.093Z,87.12
2022-12-13T06:08:40.883Z,86.90
2022-12-13T06:14:04.157Z,86.73
2022-12-13T06:19:29.782Z,86.71
2022-12-13T06:24:52.550Z,86.73
2022-12-13T06:30:15.693Z,86.98
2022-12-13T06:35:41.267Z,87.36
2022-12-13T06:41:01.880Z,87.82
2022-12-13T06:46:24.682Z,88.18
2022-12-13T06:51:47.101Z,88.29
2022-12-13T06:57:09.569Z,88.17
2022-12-13T07:02:33.101Z,88.05
2022-12-13T07:07:55.748Z,87.97
2022-12-13T07:13:18.300Z,87.79
2022-12-13T07:18:41.558Z,87.63
2022-12-13T07:24:04.639Z,87.47
2022-12-13T07:29:26.894Z,87.35
2022-12-13T07:34:49.166Z,87.22
2022-12-13T07:40:14.085Z,87.00
2022-12-13T07:45:38.903Z,86.81
2022-12-13T07:51:04.025Z,86.55
2022-12-13T07:56:29.460Z,86.41
2022-12-13T08:01:54.540Z,86.28
2022-12-13T08:07:21.869Z,86.33
2022-12-13T08:12:46.044Z,86.22
2022-12-13T08:18:10.866Z,86.21
2022-12-13T08:23:34.669Z,86.04
2022-12-13T08:28:59.066Z,85.94
2022-12-13T08:34:23.810Z,85.89
2022-12-13T08:39:48.596Z,85.77
2022-12-13T08:45:14.483Z,85.66
2022-12-13T08:50:38.476Z,85.67
2022-12-13T08:56:04.792Z,85.37
2022-12-13T09:01:30.127Z,85.18
2022-12-13T09:06:55.105Z,85.08
2022-12-13T09:12:29.503Z,84.73
2022-12-13T09:17:45.876Z,84.71
2022-12-13T09:23:14.156Z,84.58
2022-12-13T09:28:38.318Z,84.26
2022-12-13T09:34:03.701Z,84.12
2022-12-13T09:39:28.662Z,83.97
2022-12-13T09:45:03.998Z,83.62
2022-12-13T09:50:42.486Z,83.21
2022-12-13T09:56:11.266Z,82.67
2022-12-13T10:01:32.587Z,82.32
2022-12-13T10:07:00.329Z,82.21
2022-12-13T10:12:25.797Z,82.09
2022-12-13T10:17:55.642Z,82.10
2022-12-13T10:23:52.914Z,82.19
2022-12-13T10:28:47.854Z,82.24
2022-12-13T10:34:17.035Z,82.10
2022-12-13T10:39:57.952Z,82.27
2022-12-13T10:45:33.703Z,81.13
2022-12-13T10:51:06.696Z,81.08
2022-12-13T10:56:40.580Z,80.66
2022-12-13T11:02:06.692Z,80.18
2022-12-13T11:07:47.379Z,79.60
2022-12-13T11:13:13.800Z,79.13
2022-12-13T11:18:44.032Z,78.79
2022-12-13T11:24:13.564Z,78.22
2022-12-13T11:29:42.889Z,77.33
2022-12-13T11:35:29.619Z,77.12
2022-12-13T11:40:59.726Z,76.86
2022-12-13T11:46:33.406Z,76.72
2022-12-13T11:52:08.997Z,76.25
2022-12-13T11:57:40.646Z,76.21
2022-12-13T12:03:09.544Z,75.59
2022-12-13T12:08:40.827Z,75.21
2022-12-13T12:14:23.862Z,75.41
2022-12-13T12:19:56.196Z,74.59
2022-12-13T12:25:49.644Z,74.56
2022-12-13T12:31:51.023Z,74.18
2022-12-13T12:37:31.245Z,73.97
2022-12-13T12:43:23.056Z,73.69
2022-12-13T12:49:17.939Z,73.92
2022-12-13T12:55:16.061Z,73.96
2022-12-13T13:00:55.843Z,74.08
2022-12-13T13:06:37.656Z,74.24
2022-12-13T13:12:29.559Z,74.42
2022-12-13T13:17:50.543Z,74.53
2022-12-13T13:23:39.373Z,74.92
2022-12-13T13:28:49.498Z,75.23
2022-12-13T13:34:15.849Z,75.44
2022-12-13T13:40:08.442Z,75.66
2022-12-13T13:45:59.990Z,75.82
2022-12-13T13:58:11.113Z,76.15
2022-12-13T14:04:04.133Z,76.46
2022-12-13T14:09:56.973Z,76.74
2022-12-13T14:15:49.744Z,77.16
2022-12-13T14:21:51.211Z,77.62
2022-12-13T14:27:23.413Z,77.88
2022-12-13T14:32:51.023Z,78.23
2022-12-13T14:38:33.721Z,78.48
2022-12-13T14:44:15.936Z,79.12
2022-12-13T14:49:42.070Z,79.04
2022-12-13T14:55:32.218Z,79.19
2022-12-13T15:00:58.518Z,79.23
2022-12-13T15:06:23.618Z,79.30
2022-12-13T15:11:51.955Z,79.39
2022-12-13T15:17:17.367Z,79.51
2022-12-13T15:22:42.224Z,79.72
2022-12-13T15:28:06.931Z,79.85
2022-12-13T15:33:41.042Z,80.07
2022-12-13T15:39:13.752Z,80.21
2022-12-13T15:44:50.694Z,80.61
2022-12-13T15:50:19.613Z,80.97
2022-12-13T15:55:47.297Z,81.27
2022-12-13T16:01:11.114Z,81.68
2022-12-13T16:06:38.763Z,81.98
2022-12-13T16:12:07.153Z,82.08
2022-12-13T16:17:37.933Z,82.38
2022-12-13T16:23:08.751Z,82.61
2022-12-13T16:28:31.223Z,82.73
2022-12-13T16:33:56.276Z,82.92
2022-12-13T16:39:22.122Z,83.11
2022-12-13T16:45:32.471Z,83.32
2022-12-13T16:50:26.590Z,83.48
2022-12-13T16:55:58.642Z,83.43
2022-12-13T17:01:16.808Z,83.58
2022-12-13T17:06:43.814Z,83.93
2022-12-13T17:12:07.507Z,84.06
2022-12-13T17:17:35.614Z,84.26
2022-12-13T17:23:01.607Z,84.64
2022-12-13T17:28:26.327Z,85.00
2022-12-13T17:33:50.882Z,85.60
2022-12-13T17:39:15.490Z,85.61
2022-12-13T17:44:39.258Z,86.41
2022-12-13T17:50:03.920Z,87.21
2022-12-13T17:55:28.479Z,88.42
2022-12-13T18:00:53.023Z,89.17
2022-12-13T18:06:20.034Z,89.61
2022-12-13T18:11:44.597Z,89.91
2022-12-13T18:17:09.952Z,89.58
2022-12-13T18:22:41.225Z,89.03
2022-12-13T18:28:02.144Z,88.17
2022-12-13T18:33:26.660Z,87.69
2022-12-13T18:38:53.214Z,87.46
2022-12-13T18:44:19.079Z,87.68
2022-12-13T18:49:43.568Z,88.23
2022-12-13T18:55:08.021Z,89.21
2022-12-13T19:00:30.670Z,89.67
2022-12-13T19:05:54.017Z,90.49
2022-12-13T19:11:19.399Z,91.16
2022-12-13T19:16:43.502Z,91.87
2022-12-13T19:22:07.352Z,92.63
2022-12-13T19:27:29.686Z,92.95
2022-12-13T19:32:52.751Z,93.74
2022-12-13T19:38:15.717Z,94.73
2022-12-13T19:43:37.976Z,95.37
2022-12-13T19:49:00.664Z,96.05
2022-12-13T19:54:24.571Z,96.75
2022-12-13T19:59:47.330Z,97.60
2022-12-13T20:05:10.308Z,98.34
2022-12-13T20:10:32.490Z,99.07
2022-12-13T20:15:56.440Z,99.90
2022-12-13T20:21:27.396Z,100.00
2022-12-13T20:26:51.051Z,100.00
2022-12-13T20:32:13.610Z,100.00
2022-12-13T20:37:35.879Z,100.00
2022-12-13T20:42:58.206Z,100.00
2022-12-13T20:48:20.508Z,100.00
2022-12-13T20:53:51.677Z,100.00
2022-12-13T20:59:17.506Z,100.00
2022-12-13T21:04:40.434Z,100.00
2022-12-13T21:10:02.645Z,100.00
2022-12-13T21:15:25.499Z,100.00
2022-12-13T21:20:47.922Z,100.00
2022-12-13T21:26:10.934Z,100.00
2022-12-13T21:31:34.125Z,100.00
2022-12-13T21:37:02.285Z,100.00
2022-12-13T21:42:25.061Z,100.00
2022-12-13T21:47:47.249Z,100.00
2022-12-13T21:53:09.665Z,100.00
2022-12-13T21:58:49.785Z,100.00
2022-12-13T22:04:12.036Z,100.00
2022-12-13T22:09:34.869Z,100.00
2022-12-13T22:14:59.926Z,100.00
2022-12-13T22:20:24.847Z,100.00
2022-12-13T22:25:48.896Z,100.00
2022-12-13T22:31:14.422Z,100.00
2022-12-13T22:36:38.253Z,100.00
2022-12-13T22:42:01.072Z,100.00
2022-12-13T22:47:23.398Z,100.00
2022-12-13T22:52:45.766Z,100.00
2022-12-13T22:58:07.982Z,100.00
2022-12-13T23:03:30.401Z,100.00
2022-12-13T23:08:55.581Z,100.00
2022-12-13T23:14:22.034Z,100.00
2022-12-13T23:19:50.827Z,100.00
2022-12-13T23:25:08.950Z,100.00
2022-12-13T23:30:31.836Z,100.00
2022-12-13T23:35:55.645Z,100.00
2022-12-13T23:41:33.839Z,100.00
2022-12-13T23:46:55.690Z,100.00
2022-12-13T23:52:17.954Z,100.00
2022-12-13T23:57:40.172Z,100.00
